createdAt,value
2019-05-20T00:01:36.040Z,94.60
2019-05-20T00:04:04.512Z,94.80
2019-05-20T00:06:33.011Z,95.00
2019-05-20T00:09:01.496Z,95.20
2019-05-20T00:11:30.105Z,95.20
2019-05-20T00:13:58.946Z,95.10
2019-05-20T00:16:27.440Z,94.80
2019-05-20T00:18:56.005Z,94.70
2019-05-20T00:21:24.478Z,95.20
2019-05-20T00:23:52.978Z,95.20
2019-05-20T00:26:21.442Z,95.20
2019-05-20T00:28:49.910Z,95.20
2019-05-20T00:31:18.409Z,95.30
2019-05-20T00:33:46.867Z,95.40
2019-05-20T00:36:15.341Z,95.50
2019-05-20T00:38:45.562Z,95.30
2019-05-20T00:41:14.093Z,95.10
2019-05-20T00:43:42.562Z,95.50
2019-05-20T00:46:11.049Z,95.60
2019-05-20T00:48:39.505Z,95.80
2019-05-20T00:51:07.974Z,95.70
2019-05-20T00:53:36.470Z,95.50
2019-05-20T00:56:05.077Z,95.80
2019-05-20T00:58:33.836Z,95.80
2019-05-20T01:01:02.336Z,95.60
2019-05-20T01:03:30.934Z,95.40
2019-05-20T01:05:59.399Z,95.30
2019-05-20T01:08:27.946Z,95.30
2019-05-20T01:10:56.399Z,95.30
2019-05-20T01:13:24.874Z,95.60
2019-05-20T01:15:54.866Z,95.30
2019-05-20T01:18:25.557Z,95.20
2019-05-20T01:20:54.482Z,95.30
2019-05-20T01:23:23.025Z,95.40
2019-05-20T01:25:51.526Z,95.50
2019-05-20T01:28:19.998Z,95.50
2019-05-20T01:30:48.470Z,95.00
2019-05-20T01:33:17.016Z,94.90
2019-05-20T01:35:46.860Z,95.40
2019-05-20T01:38:15.347Z,95.40
2019-05-20T01:40:44.288Z,95.40
2019-05-20T01:43:12.794Z,95.10
2019-05-20T01:45:41.272Z,95.10
2019-05-20T01:48:09.742Z,95.10
2019-05-20T01:50:38.204Z,95.30
2019-05-20T01:53:06.671Z,95.00
2019-05-20T01:55:35.139Z,94.90
2019-05-20T01:58:04.032Z,94.80
2019-05-20T02:00:32.489Z,95.10
2019-05-20T02:03:01.024Z,95.10
2019-05-20T02:05:29.511Z,95.30
2019-05-20T02:07:58.058Z,95.10
2019-05-20T02:10:26.569Z,95.20
2019-05-20T02:12:55.039Z,95.60
2019-05-20T02:15:33.771Z,95.70
2019-05-20T02:18:02.243Z,95.60
2019-05-20T02:20:30.700Z,95.50
2019-05-20T02:23:15.082Z,95.40
2019-05-20T02:25:47.792Z,95.30
2019-05-20T02:28:16.421Z,95.50
2019-05-20T02:30:44.882Z,95.70
2019-05-20T02:33:13.412Z,95.70
2019-05-20T02:35:41.981Z,95.40
2019-05-20T02:38:10.432Z,95.50
2019-05-20T02:40:39.217Z,95.90
2019-05-20T02:43:09.306Z,95.70
2019-05-20T02:45:37.758Z,95.50
2019-05-20T02:48:07.222Z,95.70
2019-05-20T02:50:38.719Z,95.40
2019-05-20T02:53:07.255Z,95.40
2019-05-20T02:55:35.754Z,95.50
2019-05-20T02:58:04.229Z,95.30
2019-05-20T03:00:33.213Z,95.30
2019-05-20T03:03:01.809Z,95.30
2019-05-20T03:05:30.538Z,95.50
2019-05-20T03:07:59.463Z,95.60
2019-05-20T03:10:27.993Z,95.30
2019-05-20T03:12:56.819Z,95.30
2019-05-20T03:15:25.371Z,95.20
2019-05-20T03:17:53.938Z,95.30
2019-05-20T03:20:24.194Z,95.20
2019-05-20T03:22:52.749Z,95.10
2019-05-20T03:25:21.350Z,95.20
2019-05-20T03:27:50.070Z,95.20
2019-05-20T03:30:18.774Z,94.90
2019-05-20T03:32:48.774Z,94.90
2019-05-20T03:35:17.252Z,95.00
2019-05-20T03:37:45.783Z,94.80
2019-05-20T03:40:14.487Z,94.60
2019-05-20T03:42:42.994Z,94.70
2019-05-20T03:45:13.161Z,94.80
2019-05-20T03:47:41.633Z,94.90
2019-05-20T03:50:10.509Z,94.60
2019-05-20T03:52:39.041Z,94.60
2019-05-20T03:55:07.862Z,94.60
2019-05-20T03:57:36.944Z,94.70
2019-05-20T04:00:08.999Z,94.90
2019-05-20T04:02:37.559Z,94.90
2019-05-20T04:05:06.338Z,95.40
2019-05-20T04:07:34.879Z,95.30
2019-05-20T04:10:04.288Z,95.10
2019-05-20T04:12:33.168Z,95.20
2019-05-20T04:15:01.664Z,95.10
2019-05-20T04:17:31.655Z,95.10
2019-05-20T04:20:00.123Z,95.10
2019-05-20T04:22:28.668Z,95.00
2019-05-20T04:24:57.195Z,94.80
2019-05-20T04:27:25.682Z,94.70
2019-05-20T04:29:54.197Z,94.50
2019-05-20T04:32:22.685Z,94.40
2019-05-20T04:34:51.381Z,94.20
2019-05-20T04:37:20.213Z,94.00
2019-05-20T04:39:49.027Z,94.00
2019-05-20T04:42:17.495Z,94.00
2019-05-20T04:44:46.059Z,93.90
2019-05-20T04:47:14.882Z,93.90
2019-05-20T04:49:43.746Z,94.10
2019-05-20T04:52:12.581Z,94.10
2019-05-20T04:54:41.035Z,94.20
2019-05-20T04:57:09.503Z,94.20
2019-05-20T04:59:37.971Z,94.00
2019-05-20T05:02:06.757Z,93.90
2019-05-20T05:04:35.262Z,94.00
2019-05-20T05:07:03.811Z,94.00
2019-05-20T05:09:32.332Z,93.90
2019-05-20T05:12:00.855Z,94.10
2019-05-20T05:14:29.367Z,93.80
2019-05-20T05:16:57.825Z,93.80
2019-05-20T05:19:26.285Z,93.70
2019-05-20T05:21:54.824Z,93.80
2019-05-20T05:24:23.290Z,93.70
2019-05-20T05:26:51.757Z,93.70
2019-05-20T05:29:20.383Z,93.90
2019-05-20T05:31:48.894Z,94.00
2019-05-20T05:34:17.514Z,93.90
2019-05-20T05:36:46.006Z,93.80
2019-05-20T05:39:14.461Z,93.70
2019-05-20T05:41:42.937Z,93.80
2019-05-20T05:44:11.483Z,93.60
2019-05-20T05:46:40.322Z,93.90
2019-05-20T05:49:08.960Z,94.00
2019-05-20T05:51:37.425Z,93.90
2019-05-20T05:54:07.588Z,94.30
2019-05-20T05:56:36.232Z,94.30
2019-05-20T05:59:05.173Z,94.60
2019-05-20T06:01:33.654Z,94.50
2019-05-20T06:04:02.147Z,94.60
2019-05-20T06:06:30.615Z,94.60
2019-05-20T06:08:59.105Z,94.70
2019-05-20T06:11:27.775Z,94.50
2019-05-20T06:13:56.306Z,94.50
2019-05-20T06:16:35.916Z,94.40
2019-05-20T06:18:57.999Z,94.30
2019-05-20T06:21:26.554Z,94.40
2019-05-20T06:23:55.087Z,94.70
2019-05-20T06:26:23.599Z,94.60
2019-05-20T06:28:52.082Z,94.80
2019-05-20T06:31:20.889Z,94.70
2019-05-20T06:33:49.396Z,94.60
2019-05-20T06:36:26.393Z,94.60
2019-05-20T06:38:51.386Z,94.60
2019-05-20T06:41:19.919Z,94.80
2019-05-20T06:43:48.468Z,94.50
2019-05-20T06:46:16.926Z,94.80
2019-05-20T06:48:45.381Z,94.80
2019-05-20T06:51:13.865Z,94.90
2019-05-20T06:53:42.713Z,94.90
2019-05-20T06:56:11.177Z,94.90
2019-05-20T06:58:39.802Z,94.60
2019-05-20T07:01:08.765Z,94.50
2019-05-20T07:03:37.272Z,94.10
2019-05-20T07:06:05.812Z,94.20
2019-05-20T07:08:34.372Z,94.20
2019-05-20T07:11:02.931Z,94.00
2019-05-20T07:13:31.410Z,93.70
2019-05-20T07:16:00.269Z,93.70
2019-05-20T07:18:28.854Z,93.80
2019-05-20T07:20:57.440Z,93.90
2019-05-20T07:23:25.992Z,93.80
2019-05-20T07:25:54.530Z,94.00
2019-05-20T07:28:23.798Z,94.10
2019-05-20T07:30:52.332Z,94.20
2019-05-20T07:33:20.936Z,94.30
2019-05-20T07:35:49.443Z,94.20
2019-05-20T07:38:19.513Z,93.80
2019-05-20T07:40:48.050Z,93.70
2019-05-20T07:43:16.597Z,94.00
2019-05-20T07:45:46.490Z,93.90
2019-05-20T07:48:15.430Z,93.70
2019-05-20T07:50:44.535Z,93.60
2019-05-20T07:53:13.612Z,93.70
2019-05-20T07:55:51.133Z,94.10
2019-05-20T07:58:22.484Z,94.50
2019-05-20T08:00:51.206Z,94.40
2019-05-20T08:03:19.827Z,94.40
2019-05-20T08:05:48.368Z,94.80
2019-05-20T08:08:18.521Z,94.60
2019-05-20T08:10:47.080Z,94.60
2019-05-20T08:13:15.546Z,94.80
2019-05-20T08:15:44.125Z,94.90
2019-05-20T08:18:12.670Z,94.60
2019-05-20T08:20:41.385Z,94.80
2019-05-20T08:23:09.926Z,94.70
2019-05-20T08:25:38.465Z,94.40
2019-05-20T08:28:07.154Z,94.60
2019-05-20T08:30:37.566Z,94.50
2019-05-20T08:33:06.860Z,94.30
2019-05-20T08:35:35.655Z,94.20
2019-05-20T08:38:04.496Z,94.40
2019-05-20T08:40:33.024Z,94.20
2019-05-20T08:43:01.565Z,94.50
2019-05-20T08:45:30.274Z,94.30
2019-05-20T08:47:58.835Z,94.00
2019-05-20T08:50:29.041Z,93.90
2019-05-20T08:52:57.599Z,93.80
2019-05-20T08:55:26.196Z,93.80
2019-05-20T08:57:54.755Z,93.70
2019-05-20T09:00:24.464Z,93.90
2019-05-20T09:02:54.096Z,93.60
2019-05-20T09:05:23.094Z,93.80
2019-05-20T09:08:02.515Z,93.60
2019-05-20T09:10:22.119Z,93.90
2019-05-20T09:12:50.661Z,93.60
2019-05-20T09:15:19.462Z,93.20
2019-05-20T09:17:48.093Z,93.10
2019-05-20T09:20:17.553Z,93.30
2019-05-20T09:22:46.198Z,93.00
2019-05-20T09:25:15.148Z,93.50
2019-05-20T09:27:43.925Z,93.30
2019-05-20T09:30:13.015Z,93.00
2019-05-20T09:32:42.907Z,93.20
2019-05-20T09:35:12.147Z,93.10
2019-05-20T09:37:40.687Z,92.70
2019-05-20T09:40:09.242Z,92.50
2019-05-20T09:42:40.812Z,92.60
2019-05-20T09:45:08.902Z,92.80
2019-05-20T09:47:37.509Z,92.40
2019-05-20T09:50:06.242Z,92.90
2019-05-20T09:52:34.839Z,92.40
2019-05-20T09:55:05.057Z,92.40
2019-05-20T09:57:36.510Z,92.70
2019-05-20T10:00:07.186Z,92.20
2019-05-20T10:02:38.250Z,92.60
2019-05-20T10:05:06.988Z,92.50
2019-05-20T10:07:35.564Z,92.10
2019-05-20T10:10:07.363Z,92.30
2019-05-20T10:12:46.141Z,92.00
2019-05-20T10:15:07.281Z,92.00
2019-05-20T10:17:35.822Z,91.80
2019-05-20T10:20:07.961Z,91.90
2019-05-20T10:22:36.436Z,92.00
2019-05-20T10:25:08.024Z,91.70
2019-05-20T10:27:39.491Z,91.70
2019-05-20T10:30:11.380Z,91.50
2019-05-20T10:32:40.021Z,91.30
2019-05-20T10:35:09.470Z,91.30
2019-05-20T10:37:38.064Z,91.20
2019-05-20T10:40:08.319Z,91.40
2019-05-20T10:42:36.794Z,91.40
2019-05-20T10:45:08.752Z,91.30
2019-05-20T10:47:37.217Z,91.50
2019-05-20T10:50:07.400Z,92.20
2019-05-20T10:52:35.892Z,92.60
2019-05-20T10:55:06.896Z,91.70
2019-05-20T10:57:35.393Z,91.60
2019-05-20T11:00:05.673Z,91.40
2019-05-20T11:02:34.138Z,91.20
2019-05-20T11:05:04.166Z,91.30
2019-05-20T11:07:32.702Z,90.90
2019-05-20T11:10:01.255Z,91.40
2019-05-20T11:12:29.779Z,91.60
2019-05-20T11:14:58.676Z,91.60
2019-05-20T11:17:27.229Z,91.30
2019-05-20T11:19:55.979Z,91.30
2019-05-20T11:22:24.640Z,91.30
2019-05-20T11:24:53.195Z,91.30
2019-05-20T11:27:21.733Z,91.00
2019-05-20T11:29:50.223Z,90.90
2019-05-20T11:32:19.195Z,90.80
2019-05-20T11:34:47.857Z,90.70
2019-05-20T11:37:16.478Z,90.70
2019-05-20T11:39:44.975Z,91.00
2019-05-20T11:42:13.444Z,90.90
2019-05-20T11:44:41.980Z,91.00
2019-05-20T11:47:10.482Z,91.20
2019-05-20T11:49:40.145Z,91.40
2019-05-20T11:52:08.681Z,91.20
2019-05-20T11:54:37.200Z,91.10
2019-05-20T11:57:05.769Z,90.70
2019-05-20T11:59:34.309Z,90.60
2019-05-20T12:02:04.097Z,90.60
2019-05-20T12:04:32.940Z,90.50
2019-05-20T12:07:01.683Z,90.60
2019-05-20T12:09:30.212Z,90.60
2019-05-20T12:11:58.757Z,90.20
2019-05-20T12:14:27.302Z,90.10
2019-05-20T12:16:55.879Z,89.70
2019-05-20T12:19:24.368Z,90.40
2019-05-20T12:21:53.044Z,90.10
2019-05-20T12:24:21.522Z,90.00
2019-05-20T12:26:49.991Z,90.40
2019-05-20T12:29:18.510Z,90.30
2019-05-20T12:31:47.069Z,90.20
2019-05-20T12:34:15.605Z,90.20
2019-05-20T12:36:45.860Z,90.20
2019-05-20T12:39:14.406Z,90.10
2019-05-20T12:41:42.999Z,90.30
2019-05-20T12:44:13.206Z,90.30
2019-05-20T12:46:42.020Z,90.70
2019-05-20T12:49:10.550Z,90.90
2019-05-20T12:51:39.116Z,90.90
2019-05-20T12:54:07.661Z,90.60
2019-05-20T12:56:36.209Z,90.70
2019-05-20T12:59:05.194Z,90.80
2019-05-20T13:01:33.782Z,90.80
2019-05-20T13:04:02.299Z,90.90
2019-05-20T13:06:30.813Z,90.60
2019-05-20T13:08:59.368Z,90.80
2019-05-20T13:11:27.921Z,89.90
2019-05-20T13:13:56.457Z,89.50
2019-05-20T13:16:24.946Z,89.20
2019-05-20T13:18:55.960Z,88.80
2019-05-20T13:21:23.665Z,88.40
2019-05-20T13:23:52.212Z,88.20
2019-05-20T13:26:20.748Z,87.60
2019-05-20T13:28:49.233Z,87.30
2019-05-20T13:31:17.695Z,89.10
2019-05-20T13:33:46.543Z,89.20
2019-05-20T13:36:15.085Z,87.60
2019-05-20T13:38:43.597Z,89.60
2019-05-20T13:41:12.134Z,89.90
2019-05-20T13:43:42.634Z,89.80
2019-05-20T13:46:12.522Z,90.00
2019-05-20T13:48:41.062Z,89.40
2019-05-20T13:51:09.546Z,87.80
2019-05-20T13:53:38.192Z,88.20
2019-05-20T13:56:06.730Z,88.10
2019-05-20T13:58:35.295Z,88.90
2019-05-20T14:01:03.782Z,89.50
2019-05-20T14:03:32.232Z,89.00
2019-05-20T14:06:00.735Z,88.70
2019-05-20T14:08:29.291Z,88.90
2019-05-20T14:11:04.415Z,88.90
2019-05-20T14:13:29.485Z,88.60
2019-05-20T14:15:57.955Z,89.40
2019-05-20T14:18:26.548Z,88.60
2019-05-20T14:20:56.618Z,88.90
2019-05-20T14:23:25.082Z,89.50
2019-05-20T14:25:53.838Z,89.90
2019-05-20T14:28:22.309Z,90.20
2019-05-20T14:30:50.797Z,90.60
2019-05-20T14:33:19.426Z,90.60
2019-05-20T14:35:47.902Z,90.80
2019-05-20T14:38:16.364Z,90.80
2019-05-20T14:40:44.982Z,90.50
2019-05-20T14:43:14.982Z,90.20
2019-05-20T14:45:43.556Z,90.50
2019-05-20T14:48:12.138Z,90.60
2019-05-20T14:50:40.666Z,90.80
2019-05-20T14:53:09.169Z,90.80
2019-05-20T14:55:42.534Z,90.60
2019-05-20T14:58:08.549Z,90.40
2019-05-20T15:00:37.001Z,90.30
2019-05-20T15:03:05.539Z,90.00
2019-05-20T15:05:34.224Z,90.10
2019-05-20T15:08:02.915Z,90.00
2019-05-20T15:10:31.814Z,90.10
2019-05-20T15:13:00.565Z,90.20
2019-05-20T15:15:29.239Z,90.40
2019-05-20T15:17:58.060Z,90.30
2019-05-20T15:20:26.591Z,90.40
2019-05-20T15:22:55.143Z,90.30
2019-05-20T15:25:23.618Z,90.50
2019-05-20T15:27:52.099Z,90.70
2019-05-20T15:30:22.133Z,91.00
2019-05-20T15:32:50.644Z,91.00
2019-05-20T15:35:19.184Z,90.90
2019-05-20T15:37:47.650Z,91.00
2019-05-20T15:40:16.398Z,90.80
2019-05-20T15:42:45.338Z,90.70
2019-05-20T15:45:14.144Z,90.40
2019-05-20T15:47:42.639Z,90.10
2019-05-20T15:50:11.642Z,90.20
2019-05-20T15:52:40.248Z,90.10
2019-05-20T15:55:09.390Z,90.10
2019-05-20T15:57:37.945Z,90.30
2019-05-20T16:00:09.122Z,90.40
2019-05-20T16:02:37.842Z,90.50
2019-05-20T16:05:09.512Z,90.60
2019-05-20T16:07:38.067Z,91.00
2019-05-20T16:10:07.118Z,91.30
2019-05-20T16:12:35.687Z,91.40
2019-05-20T16:15:06.477Z,91.50
2019-05-20T16:17:35.048Z,91.60
2019-05-20T16:20:07.140Z,91.70
2019-05-20T16:22:35.914Z,91.90
2019-05-20T16:25:07.300Z,91.80
2019-05-20T16:27:35.773Z,91.80
2019-05-20T16:30:07.816Z,92.10
2019-05-20T16:32:36.411Z,92.30
2019-05-20T16:35:06.635Z,92.60
2019-05-20T16:37:35.564Z,92.60
2019-05-20T16:40:09.296Z,92.10
2019-05-20T16:42:38.256Z,92.30
2019-05-20T16:45:11.966Z,92.30
2019-05-20T16:47:39.736Z,92.20
2019-05-20T16:50:10.476Z,91.90
2019-05-20T16:52:39.306Z,92.20
2019-05-20T16:55:08.374Z,92.10
2019-05-20T16:57:36.881Z,92.20
2019-05-20T17:00:16.165Z,92.50
2019-05-20T17:02:37.336Z,92.20
2019-05-20T17:05:06.808Z,92.20
2019-05-20T17:07:35.465Z,92.40
2019-05-20T17:10:06.787Z,92.10
2019-05-20T17:12:35.690Z,92.20
2019-05-20T17:15:05.240Z,92.10
2019-05-20T17:17:33.788Z,92.40
2019-05-20T17:20:02.280Z,92.70
2019-05-20T17:22:31.045Z,92.80
2019-05-20T17:24:59.873Z,92.90
2019-05-20T17:27:28.401Z,93.10
2019-05-20T17:29:57.271Z,93.00
2019-05-20T17:32:25.883Z,93.10
2019-05-20T17:34:54.444Z,93.00
2019-05-20T17:37:22.933Z,93.40
2019-05-20T17:39:51.462Z,93.90
2019-05-20T17:42:20.005Z,94.10
2019-05-20T17:44:48.477Z,94.10
2019-05-20T17:47:17.035Z,94.10
2019-05-20T17:49:45.634Z,94.20
2019-05-20T17:52:14.189Z,94.00
2019-05-20T17:54:42.652Z,94.10
2019-05-20T17:57:11.549Z,94.30
2019-05-20T17:59:40.101Z,94.40
2019-05-20T18:02:10.269Z,94.00
2019-05-20T18:04:38.779Z,93.70
2019-05-20T18:07:07.324Z,93.60
2019-05-20T18:09:37.505Z,93.30
2019-05-20T18:12:06.062Z,93.50
2019-05-20T18:14:36.731Z,93.50
2019-05-20T18:17:31.152Z,93.20
2019-05-20T18:19:59.679Z,93.20
2019-05-20T18:22:28.495Z,93.10
2019-05-20T18:24:57.037Z,93.00
2019-05-20T18:27:25.565Z,93.10
2019-05-20T18:29:54.047Z,93.00
2019-05-20T18:32:22.520Z,92.70
2019-05-20T18:34:51.001Z,92.70
2019-05-20T18:37:19.509Z,92.40
2019-05-20T18:39:48.033Z,92.40
2019-05-20T18:42:16.532Z,92.40
2019-05-20T18:44:44.985Z,92.60
2019-05-20T18:47:19.005Z,92.70
2019-05-20T18:49:47.498Z,92.80
2019-05-20T18:52:15.967Z,92.70
2019-05-20T18:54:44.432Z,92.70
2019-05-20T18:57:13.007Z,93.00
2019-05-20T18:59:41.605Z,93.20
2019-05-20T19:02:10.135Z,93.20
2019-05-20T19:04:38.638Z,93.10
2019-05-20T19:07:07.257Z,93.40
2019-05-20T19:09:35.909Z,93.50
2019-05-20T19:12:04.583Z,93.50
2019-05-20T19:14:33.053Z,93.70
2019-05-20T19:17:01.628Z,94.10
2019-05-20T19:19:30.176Z,94.30
2019-05-20T19:21:58.719Z,93.90
2019-05-20T19:24:27.760Z,93.80
2019-05-20T19:26:56.235Z,94.00
2019-05-20T19:29:24.699Z,94.00
2019-05-20T19:32:01.919Z,94.20
2019-05-20T19:34:23.367Z,94.30
2019-05-20T19:36:51.834Z,94.20
2019-05-20T19:39:20.325Z,94.20
2019-05-20T19:41:48.849Z,94.10
2019-05-20T19:44:19.157Z,94.10
2019-05-20T19:46:47.633Z,94.10
2019-05-20T19:49:16.119Z,94.00
2019-05-20T19:51:44.632Z,94.00
2019-05-20T19:54:13.170Z,94.30
2019-05-20T19:56:41.648Z,94.30
2019-05-20T19:59:10.138Z,94.30
2019-05-20T20:01:38.675Z,94.10
2019-05-20T20:04:07.191Z,94.10
2019-05-20T20:06:37.185Z,94.20
2019-05-20T20:09:06.691Z,94.10
2019-05-20T20:11:35.209Z,94.30
2019-05-20T20:14:03.887Z,94.40
2019-05-20T20:16:32.388Z,94.20
2019-05-20T20:19:00.857Z,94.30
2019-05-20T20:21:29.362Z,94.70
2019-05-20T20:23:57.883Z,94.80
2019-05-20T20:26:26.414Z,94.70
2019-05-20T20:28:54.897Z,94.60
2019-05-20T20:31:23.414Z,94.50
2019-05-20T20:33:51.938Z,94.30
2019-05-20T20:36:21.479Z,94.50
2019-05-20T20:38:50.313Z,94.60
2019-05-20T20:41:18.825Z,94.60
2019-05-20T20:43:47.325Z,94.70
2019-05-20T20:46:15.866Z,94.30
2019-05-20T20:48:44.360Z,94.00
2019-05-20T20:51:12.913Z,93.80
2019-05-20T20:53:41.374Z,94.30
2019-05-20T20:56:24.241Z,94.30
2019-05-20T20:58:40.110Z,94.50
2019-05-20T21:01:08.580Z,94.50
2019-05-20T21:03:37.059Z,94.60
2019-05-20T21:06:05.546Z,94.60
2019-05-20T21:08:34.034Z,94.60
2019-05-20T21:11:02.507Z,94.40
2019-05-20T21:13:31.779Z,94.50
2019-05-20T21:16:00.333Z,94.40
2019-05-20T21:18:28.815Z,94.50
2019-05-20T21:20:57.297Z,94.40
2019-05-20T21:23:25.778Z,94.10
2019-05-20T21:25:54.277Z,94.20
2019-05-20T21:28:22.810Z,94.10
2019-05-20T21:30:51.349Z,94.10
2019-05-20T21:33:22.946Z,94.20
2019-05-20T21:35:51.579Z,94.10
2019-05-20T21:38:20.042Z,94.30
2019-05-20T21:40:48.526Z,94.10
2019-05-20T21:43:17.006Z,94.00
2019-05-20T21:45:45.498Z,94.10
2019-05-20T21:48:14.262Z,94.10
2019-05-20T21:50:42.855Z,94.10
2019-05-20T21:53:11.714Z,94.10
2019-05-20T21:55:40.215Z,93.80
2019-05-20T21:58:08.983Z,93.30
2019-05-20T22:00:51.257Z,93.20
2019-05-20T22:03:24.375Z,93.20
2019-05-20T22:05:50.174Z,92.90
2019-05-20T22:08:18.671Z,93.00
2019-05-20T22:10:47.488Z,93.40
2019-05-20T22:13:15.964Z,93.60
2019-05-20T22:15:44.515Z,93.90
2019-05-20T22:18:12.969Z,94.10
2019-05-20T22:20:41.457Z,94.20
2019-05-20T22:23:23.234Z,93.90
2019-05-20T22:25:52.780Z,93.70
2019-05-20T22:28:21.245Z,93.20
2019-05-20T22:30:49.719Z,93.00
2019-05-20T22:33:18.262Z,93.10
2019-05-20T22:35:46.706Z,93.20
2019-05-20T22:38:15.242Z,93.10
2019-05-20T22:40:44.488Z,93.00
2019-05-20T22:43:13.125Z,92.90
2019-05-20T22:45:44.042Z,92.80
2019-05-20T22:48:12.532Z,92.90
2019-05-20T22:50:40.987Z,93.00
2019-05-20T22:53:09.484Z,93.00
2019-05-20T22:55:37.947Z,92.90
2019-05-20T22:58:06.479Z,93.00
2019-05-20T23:00:34.956Z,93.00
2019-05-20T23:03:03.423Z,92.70
2019-05-20T23:05:32.006Z,92.50
2019-05-20T23:08:03.481Z,92.60
2019-05-20T23:10:32.044Z,92.80
2019-05-20T23:13:00.582Z,92.80
2019-05-20T23:15:29.125Z,93.20
2019-05-20T23:17:57.842Z,93.30
2019-05-20T23:20:26.405Z,93.40
2019-05-20T23:22:54.871Z,93.10
2019-05-20T23:25:23.425Z,93.20
2019-05-20T23:27:51.965Z,93.10
2019-05-20T23:30:20.585Z,93.10
2019-05-20T23:32:49.054Z,92.90
2019-05-20T23:35:17.505Z,92.70
2019-05-20T23:37:45.980Z,92.40
2019-05-20T23:40:14.443Z,92.30
2019-05-20T23:42:42.920Z,92.10
2019-05-20T23:45:11.933Z,92.50
2019-05-20T23:47:40.431Z,92.70
2019-05-20T23:50:09.388Z,92.80
2019-05-20T23:52:37.859Z,92.90
2019-05-20T23:55:08.186Z,92.70
2019-05-20T23:57:36.733Z,92.60
